createdAt,value
2019-02-10T00:00:13.586Z,62.08
2019-02-10T00:03:01.108Z,61.43
2019-02-10T00:05:48.232Z,60.82
2019-02-10T00:08:36.166Z,61.96
2019-02-10T00:11:23.692Z,63.23
2019-02-10T00:14:11.872Z,63.45
2019-02-10T00:16:59.355Z,61.97
2019-02-10T00:19:47.196Z,63.59
2019-02-10T00:22:35.022Z,62.73
2019-02-10T00:25:22.036Z,63.73
2019-02-10T00:28:09.769Z,63.42
2019-02-10T00:30:56.888Z,64.04
2019-02-10T00:33:44.412Z,64.38
2019-02-10T00:36:33.528Z,66.05
2019-02-10T00:39:21.100Z,65.92
2019-02-10T00:42:08.534Z,66.02
2019-02-10T00:44:56.257Z,65.89
2019-02-10T00:47:43.577Z,66.15
2019-02-10T00:50:31.109Z,66.43
2019-02-10T00:53:18.917Z,66.22
2019-02-10T00:56:06.567Z,66.58
2019-02-10T00:58:53.912Z,67.24
2019-02-10T01:01:41.620Z,66.86
2019-02-10T01:04:29.661Z,67.06
2019-02-10T01:07:17.596Z,67.81
2019-02-10T01:10:07.273Z,66.67
2019-02-10T01:12:54.901Z,64.91
2019-02-10T01:15:42.017Z,66.51
2019-02-10T01:18:29.546Z,65.89
2019-02-10T01:21:16.968Z,65.02
2019-02-10T01:24:04.701Z,63.91
2019-02-10T01:26:52.124Z,63.74
2019-02-10T01:29:39.622Z,63.55
2019-02-10T01:32:27.176Z,64.24
2019-02-10T01:35:15.114Z,63.84
2019-02-10T01:38:02.334Z,63.76
2019-02-10T01:40:49.755Z,64.82
2019-02-10T01:43:37.282Z,65.09
2019-02-10T01:46:24.812Z,65.17
2019-02-10T01:49:12.340Z,64.20
2019-02-10T01:52:00.074Z,64.02
2019-02-10T01:54:47.392Z,63.85
2019-02-10T01:57:34.715Z,63.55
2019-02-10T02:00:22.449Z,63.21
2019-02-10T02:03:09.969Z,62.68
2019-02-10T02:05:57.494Z,62.67
2019-02-10T02:08:44.817Z,61.82
2019-02-10T02:11:32.445Z,62.21
2019-02-10T02:14:19.564Z,63.98
2019-02-10T02:17:08.218Z,62.54
2019-02-10T02:19:55.975Z,62.31
2019-02-10T02:22:43.371Z,62.33
2019-02-10T02:25:31.002Z,61.61
2019-02-10T02:28:18.114Z,62.51
2019-02-10T02:31:05.541Z,61.79
2019-02-10T02:33:52.964Z,62.49
2019-02-10T02:36:43.768Z,63.29
2019-02-10T02:39:31.911Z,62.25
2019-02-10T02:42:19.332Z,62.61
2019-02-10T02:45:09.305Z,62.34
2019-02-10T02:47:56.742Z,63.24
2019-02-10T02:50:44.379Z,64.44
2019-02-10T02:53:31.896Z,65.03
2019-02-10T02:56:19.627Z,65.55
2019-02-10T02:59:06.745Z,63.72
2019-02-10T03:01:54.168Z,62.36
2019-02-10T03:04:42.015Z,62.16
2019-02-10T03:07:29.735Z,62.41
2019-02-10T03:10:17.466Z,62.95
2019-02-10T03:13:04.786Z,62.49
2019-02-10T03:15:52.211Z,63.40
2019-02-10T03:18:39.533Z,64.14
2019-02-10T03:21:27.372Z,63.23
2019-02-10T03:24:14.697Z,63.43
2019-02-10T03:27:01.705Z,63.13
2019-02-10T03:29:49.138Z,63.92
2019-02-10T03:32:36.475Z,64.26
2019-02-10T03:35:24.025Z,64.92
2019-02-10T03:38:11.401Z,65.64
2019-02-10T03:40:58.825Z,65.24
2019-02-10T03:43:46.248Z,64.41
2019-02-10T03:46:33.774Z,64.38
2019-02-10T03:49:22.531Z,64.77
2019-02-10T03:52:09.854Z,65.99
2019-02-10T03:54:57.172Z,65.52
2019-02-10T03:57:44.495Z,66.32
2019-02-10T04:00:32.135Z,65.60
2019-02-10T04:03:19.567Z,65.23
2019-02-10T04:06:07.178Z,64.49
2019-02-10T04:08:54.600Z,64.68
2019-02-10T04:11:42.230Z,65.59
2019-02-10T04:14:29.345Z,65.24
2019-02-10T04:17:16.872Z,66.19
2019-02-10T04:20:06.796Z,65.69
2019-02-10T04:22:53.950Z,65.94
2019-02-10T04:25:41.297Z,64.99
2019-02-10T04:28:28.722Z,64.76
2019-02-10T04:31:16.656Z,64.10
2019-02-10T04:34:03.873Z,63.62
2019-02-10T04:36:51.608Z,63.42
2019-02-10T04:39:39.349Z,63.01
2019-02-10T04:42:27.175Z,63.50
2019-02-10T04:45:14.599Z,63.91
2019-02-10T04:48:02.120Z,63.67
2019-02-10T04:50:49.954Z,63.52
2019-02-10T04:53:37.481Z,62.88
2019-02-10T04:56:24.904Z,62.52
2019-02-10T04:59:12.431Z,61.50
2019-02-10T05:02:00.066Z,61.29
2019-02-10T05:04:47.383Z,61.56
2019-02-10T05:07:34.807Z,61.13
2019-02-10T05:10:22.335Z,61.67
2019-02-10T05:13:10.173Z,61.27
2019-02-10T05:15:57.494Z,62.65
2019-02-10T05:18:45.274Z,64.06
2019-02-10T05:21:32.646Z,64.92
2019-02-10T05:24:19.763Z,64.89
2019-02-10T05:27:07.093Z,65.92
2019-02-10T05:29:54.507Z,65.93
2019-02-10T05:32:41.831Z,66.19
2019-02-10T05:35:28.946Z,66.50
2019-02-10T05:38:17.502Z,69.23
2019-02-10T05:41:05.238Z,70.21
2019-02-10T05:43:52.244Z,71.68
2019-02-10T05:46:39.878Z,72.63
2019-02-10T05:49:27.709Z,71.39
2019-02-10T05:52:15.640Z,72.02
2019-02-10T05:55:02.889Z,71.22
2019-02-10T05:57:50.490Z,71.88
2019-02-10T06:00:37.810Z,71.53
2019-02-10T06:03:24.898Z,71.81
2019-02-10T06:06:12.968Z,72.46
2019-02-10T06:08:59.982Z,71.57
2019-02-10T06:11:48.641Z,71.32
2019-02-10T06:14:36.269Z,70.98
2019-02-10T06:17:23.586Z,70.63
2019-02-10T06:20:12.237Z,70.31
2019-02-10T06:22:59.461Z,70.12
2019-02-10T06:25:47.600Z,72.00
2019-02-10T06:28:35.328Z,71.79
2019-02-10T06:31:23.059Z,71.61
2019-02-10T06:34:10.690Z,72.14
2019-02-10T06:36:58.351Z,70.58
2019-02-10T06:39:46.370Z,70.54
2019-02-10T06:42:34.090Z,70.98
2019-02-10T06:45:22.126Z,70.80
2019-02-10T06:48:09.448Z,71.50
2019-02-10T06:50:56.976Z,72.30
2019-02-10T06:53:44.402Z,71.39
2019-02-10T06:56:31.824Z,72.48
2019-02-10T06:59:20.797Z,72.01
2019-02-10T07:02:12.918Z,73.08
2019-02-10T07:05:00.750Z,73.15
2019-02-10T07:07:48.484Z,73.48
2019-02-10T07:10:36.316Z,72.52
2019-02-10T07:13:26.855Z,73.22
2019-02-10T07:16:40.351Z,72.83
2019-02-10T07:19:53.577Z,71.88
2019-02-10T07:22:44.278Z,73.63
2019-02-10T07:25:43.318Z,73.42
2019-02-10T07:28:34.077Z,74.90
2019-02-10T07:31:22.012Z,75.59
2019-02-10T07:34:21.418Z,75.23
2019-02-10T07:37:11.750Z,75.47
2019-02-10T07:40:13.728Z,74.66
2019-02-10T07:43:22.615Z,74.35
2019-02-10T07:46:13.302Z,74.23
2019-02-10T07:49:12.991Z,75.52
2019-02-10T07:52:30.349Z,74.78
2019-02-10T07:55:27.189Z,76.33
2019-02-10T07:58:24.132Z,76.26
2019-02-10T08:01:26.917Z,75.40
2019-02-10T08:04:39.940Z,75.56
2019-02-10T08:07:50.304Z,76.47
2019-02-10T08:11:17.686Z,77.12
2019-02-10T08:14:28.006Z,77.14
2019-02-10T08:17:21.285Z,77.82
2019-02-10T08:20:30.214Z,78.02
2019-02-10T08:23:26.852Z,77.48
2019-02-10T08:26:17.558Z,78.25
2019-02-10T08:29:08.154Z,78.33
2019-02-10T08:32:20.163Z,77.36
2019-02-10T08:35:19.868Z,76.82
2019-02-10T08:38:16.313Z,76.48
2019-02-10T08:41:28.306Z,76.46
2019-02-10T08:44:42.283Z,75.53
2019-02-10T08:47:38.783Z,76.73
2019-02-10T08:50:44.133Z,78.04
2019-02-10T08:53:31.474Z,77.17
2019-02-10T08:56:18.772Z,77.85
2019-02-10T08:59:05.889Z,78.33
2019-02-10T09:01:54.273Z,77.82
2019-02-10T09:04:41.250Z,77.69
2019-02-10T09:07:31.337Z,77.17
2019-02-10T09:10:18.717Z,78.03
2019-02-10T09:13:06.394Z,77.62
2019-02-10T09:15:54.122Z,77.03
2019-02-10T09:18:41.440Z,76.96
2019-02-10T09:21:28.765Z,76.96
2019-02-10T09:24:16.086Z,77.73
2019-02-10T09:27:03.613Z,78.15
2019-02-10T09:29:51.341Z,78.35
2019-02-10T09:32:39.092Z,77.72
2019-02-10T09:35:26.609Z,77.90
2019-02-10T09:38:14.974Z,77.84
2019-02-10T09:41:01.959Z,77.75
2019-02-10T09:43:49.486Z,77.57
2019-02-10T09:46:37.028Z,77.89
2019-02-10T09:49:24.448Z,77.68
2019-02-10T09:52:12.067Z,77.23
2019-02-10T09:54:59.696Z,76.88
2019-02-10T09:57:46.812Z,77.69
2019-02-10T10:00:34.549Z,77.24
2019-02-10T10:03:21.866Z,77.80
2019-02-10T10:06:09.083Z,77.86
2019-02-10T10:08:56.715Z,76.96
2019-02-10T10:11:44.158Z,77.90
2019-02-10T10:14:31.927Z,78.48
2019-02-10T10:17:19.907Z,77.30
2019-02-10T10:20:15.838Z,78.83
2019-02-10T10:23:03.667Z,78.58
2019-02-10T10:25:50.785Z,79.33
2019-02-10T10:28:38.207Z,78.18
2019-02-10T10:31:25.550Z,77.72
2019-02-10T10:34:12.604Z,78.52
2019-02-10T10:36:59.890Z,77.66
2019-02-10T10:39:47.295Z,78.33
2019-02-10T10:42:34.918Z,78.19
2019-02-10T10:45:22.545Z,77.39
2019-02-10T10:48:09.870Z,77.68
2019-02-10T10:50:57.504Z,77.66
2019-02-10T10:53:45.024Z,77.50
2019-02-10T10:56:32.741Z,77.96
2019-02-10T10:59:20.385Z,78.29
2019-02-10T11:02:07.708Z,77.42
2019-02-10T11:04:54.723Z,77.54
2019-02-10T11:07:42.455Z,77.31
2019-02-10T11:10:29.983Z,76.88
2019-02-10T11:13:17.129Z,76.82
2019-02-10T11:16:04.520Z,78.14
2019-02-10T11:18:52.251Z,77.82
2019-02-10T11:21:39.781Z,77.56
2019-02-10T11:24:28.651Z,78.93
2019-02-10T11:27:16.264Z,78.98
2019-02-10T11:30:04.078Z,78.99
2019-02-10T11:32:51.525Z,78.21
2019-02-10T11:35:39.157Z,78.47
2019-02-10T11:38:27.989Z,78.15
2019-02-10T11:41:15.292Z,78.68
2019-02-10T11:44:03.271Z,78.77
2019-02-10T11:46:50.386Z,78.42
2019-02-10T11:49:37.604Z,78.34
2019-02-10T11:52:24.824Z,78.16
2019-02-10T11:55:12.735Z,78.11
2019-02-10T11:58:00.184Z,78.00
2019-02-10T12:00:47.612Z,78.75
2019-02-10T12:03:35.239Z,77.87
2019-02-10T12:06:22.721Z,77.05
2019-02-10T12:09:10.391Z,76.17
2019-02-10T12:11:57.838Z,76.37
2019-02-10T12:14:45.143Z,77.09
2019-02-10T12:17:32.638Z,76.68
2019-02-10T12:20:20.291Z,77.30
2019-02-10T12:23:07.516Z,76.78
2019-02-10T12:25:54.835Z,76.78
2019-02-10T12:28:42.975Z,76.87
2019-02-10T12:31:30.304Z,76.66
2019-02-10T12:34:18.240Z,75.91
2019-02-10T12:37:05.147Z,76.41
2019-02-10T12:39:59.682Z,75.65
2019-02-10T12:42:41.331Z,74.78
2019-02-10T12:45:29.058Z,75.63
2019-02-10T12:48:16.482Z,75.75
2019-02-10T12:51:04.108Z,75.50
2019-02-10T12:53:51.635Z,75.55
2019-02-10T12:56:39.062Z,76.69
2019-02-10T12:59:26.584Z,76.02
2019-02-10T13:02:14.117Z,77.75
2019-02-10T13:05:01.703Z,77.27
2019-02-10T13:07:49.273Z,76.29
2019-02-10T13:10:36.771Z,77.69
2019-02-10T13:13:24.322Z,77.53
2019-02-10T13:16:11.746Z,76.96
2019-02-10T13:18:59.281Z,76.75
2019-02-10T13:21:47.027Z,77.14
2019-02-10T13:24:34.629Z,77.80
2019-02-10T13:27:22.261Z,77.65
2019-02-10T13:30:18.285Z,76.54
2019-02-10T13:33:05.508Z,76.93
2019-02-10T13:35:52.927Z,76.11
2019-02-10T13:38:40.559Z,76.62
2019-02-10T13:41:37.605Z,76.09
2019-02-10T13:44:24.825Z,75.87
2019-02-10T13:47:12.352Z,75.82
2019-02-10T13:49:59.468Z,76.34
2019-02-10T13:52:46.792Z,77.17
2019-02-10T13:55:34.731Z,76.70
2019-02-10T13:58:21.850Z,76.83
2019-02-10T14:01:09.476Z,76.67
2019-02-10T14:03:56.802Z,77.20
2019-02-10T14:06:45.256Z,77.56
2019-02-10T14:09:32.805Z,78.35
2019-02-10T14:12:20.607Z,78.33
2019-02-10T14:15:10.765Z,78.20
2019-02-10T14:17:57.911Z,77.35
2019-02-10T14:20:45.337Z,78.21
2019-02-10T14:23:32.483Z,77.63
2019-02-10T14:26:20.084Z,77.92
2019-02-10T14:29:07.612Z,78.08
2019-02-10T14:31:55.247Z,77.75
2019-02-10T14:34:42.664Z,77.59
2019-02-10T14:37:30.393Z,76.74
2019-02-10T14:40:17.647Z,77.28
2019-02-10T14:43:05.446Z,78.04
2019-02-10T14:45:52.973Z,77.78
2019-02-10T14:48:40.315Z,77.35
2019-02-10T14:51:27.927Z,78.04
2019-02-10T14:54:15.358Z,77.60
2019-02-10T14:57:02.983Z,76.34
2019-02-10T14:59:50.830Z,74.81
2019-02-10T15:02:38.443Z,74.66
2019-02-10T15:05:25.555Z,74.81
2019-02-10T15:08:12.980Z,73.89
2019-02-10T15:11:00.096Z,73.62
2019-02-10T15:13:47.625Z,73.37
2019-02-10T15:16:35.153Z,72.74
2019-02-10T15:19:23.292Z,72.09
2019-02-10T15:22:10.818Z,71.79
2019-02-10T15:24:59.367Z,70.62
2019-02-10T15:27:47.722Z,71.23
2019-02-10T15:30:35.138Z,71.13
2019-02-10T15:33:22.798Z,70.15
2019-02-10T15:36:10.191Z,69.60
2019-02-10T15:38:57.818Z,69.56
2019-02-10T15:41:45.553Z,70.27
2019-02-10T15:44:33.389Z,69.57
2019-02-10T15:47:20.909Z,69.64
2019-02-10T15:50:11.717Z,69.39
2019-02-10T15:52:59.662Z,69.94
2019-02-10T15:55:47.385Z,69.83
2019-02-10T15:58:35.012Z,70.44
2019-02-10T16:01:22.331Z,70.19
2019-02-10T16:04:09.963Z,69.46
2019-02-10T16:06:57.484Z,69.85
2019-02-10T16:09:45.421Z,70.37
2019-02-10T16:12:32.949Z,69.85
2019-02-10T16:15:20.473Z,70.57
2019-02-10T16:18:07.604Z,68.79
2019-02-10T16:21:07.510Z,68.59
2019-02-10T16:23:55.035Z,69.00
2019-02-10T16:26:42.667Z,68.50
2019-02-10T16:29:30.599Z,68.96
2019-02-10T16:32:18.433Z,67.93
2019-02-10T16:35:08.177Z,68.77
2019-02-10T16:37:55.225Z,68.56
2019-02-10T16:40:42.984Z,68.33
2019-02-10T16:43:30.487Z,67.57
2019-02-10T16:46:17.808Z,68.20
2019-02-10T16:49:05.541Z,68.14
2019-02-10T16:51:52.963Z,68.89
2019-02-10T16:54:40.386Z,67.66
2019-02-10T16:57:28.021Z,67.00
2019-02-10T17:00:18.922Z,67.00
2019-02-10T17:03:07.783Z,67.01
2019-02-10T17:05:55.715Z,67.48
2019-02-10T17:08:43.139Z,68.54
2019-02-10T17:11:30.462Z,67.98
2019-02-10T17:14:17.986Z,68.70
2019-02-10T17:17:05.717Z,68.44
2019-02-10T17:19:53.567Z,66.98
2019-02-10T17:22:41.342Z,66.22
2019-02-10T17:25:29.958Z,66.50
2019-02-10T17:28:18.792Z,65.49
2019-02-10T17:31:06.013Z,65.08
2019-02-10T17:33:53.339Z,66.23
2019-02-10T17:36:40.758Z,67.01
2019-02-10T17:39:28.490Z,65.61
2019-02-10T17:42:15.812Z,65.36
2019-02-10T17:45:04.878Z,65.47
2019-02-10T17:47:52.608Z,65.43
2019-02-10T17:50:39.969Z,64.93
2019-02-10T17:53:27.050Z,67.81
2019-02-10T17:56:14.885Z,69.84
2019-02-10T17:59:02.512Z,71.27
2019-02-10T18:01:49.832Z,71.86
2019-02-10T18:04:37.717Z,70.52
2019-02-10T18:07:25.503Z,69.34
2019-02-10T18:10:14.768Z,69.66
2019-02-10T18:13:02.103Z,69.49
2019-02-10T18:16:03.641Z,70.71
2019-02-10T18:19:02.025Z,70.55
2019-02-10T18:22:02.961Z,69.75
2019-02-10T18:24:52.342Z,69.95
2019-02-10T18:27:56.351Z,71.07
2019-02-10T18:30:54.112Z,71.03
2019-02-10T18:33:45.737Z,70.93
2019-02-10T18:36:50.872Z,71.70
2019-02-10T18:39:40.153Z,71.27
2019-02-10T18:42:31.763Z,71.65
2019-02-10T18:45:20.725Z,72.06
2019-02-10T18:48:15.418Z,72.37
2019-02-10T18:51:04.219Z,71.08
2019-02-10T18:53:53.548Z,69.78
2019-02-10T18:56:46.093Z,70.20
2019-02-10T18:59:39.350Z,70.68
2019-02-10T19:02:44.385Z,70.25
2019-02-10T19:05:49.934Z,69.29
2019-02-10T19:08:39.417Z,69.63
2019-02-10T19:11:28.676Z,69.80
2019-02-10T19:14:23.368Z,69.22
2019-02-10T19:17:15.399Z,69.46
2019-02-10T19:20:04.227Z,70.35
2019-02-10T19:22:53.323Z,71.17
2019-02-10T19:25:51.497Z,71.66
2019-02-10T19:28:42.365Z,71.27
2019-02-10T19:31:33.826Z,71.44
2019-02-10T19:34:38.857Z,71.96
2019-02-10T19:37:44.305Z,73.84
2019-02-10T19:40:45.557Z,72.76
2019-02-10T19:43:43.217Z,72.15
2019-02-10T19:46:44.574Z,71.80
2019-02-10T19:49:33.632Z,71.50
2019-02-10T19:52:25.362Z,72.07
2019-02-10T19:55:14.520Z,71.84
2019-02-10T19:58:19.761Z,70.44
2019-02-10T20:01:18.716Z,70.69
2019-02-10T20:04:10.794Z,72.46
2019-02-10T20:06:59.898Z,72.53
2019-02-10T20:09:49.322Z,72.36
2019-02-10T20:12:54.768Z,72.78
2019-02-10T20:15:50.149Z,73.00
2019-02-10T20:18:41.907Z,73.06
2019-02-10T20:21:31.174Z,73.06
2019-02-10T20:24:21.668Z,73.99
2019-02-10T20:27:26.603Z,73.15
2019-02-10T20:30:24.372Z,73.11
2019-02-10T20:33:19.492Z,72.54
2019-02-10T20:36:11.916Z,72.44
2019-02-10T20:39:01.190Z,71.97
2019-02-10T20:41:53.944Z,71.56
2019-02-10T20:44:51.961Z,71.92
2019-02-10T20:47:43.679Z,72.13
2019-02-10T20:50:32.591Z,71.71
2019-02-10T20:53:39.166Z,71.86
2019-02-10T20:56:36.746Z,71.64
2019-02-10T20:59:37.356Z,71.36
2019-02-10T21:02:39.230Z,70.98
2019-02-10T21:05:31.250Z,70.61
2019-02-10T21:08:20.119Z,70.29
2019-02-10T21:11:09.375Z,71.09
2019-02-10T21:14:14.697Z,71.01
2019-02-10T21:17:04.910Z,70.38
2019-02-10T21:20:09.639Z,71.65
2019-02-10T21:23:15.088Z,72.06
2019-02-10T21:26:04.767Z,71.77
2019-02-10T21:29:08.741Z,72.32
2019-02-10T21:32:14.014Z,71.91
2019-02-10T21:35:03.286Z,71.87
2019-02-10T21:37:58.597Z,72.22
2019-02-10T21:41:03.937Z,71.76
2019-02-10T21:43:53.624Z,71.85
2019-02-10T21:46:42.990Z,72.53
2019-02-10T21:49:30.622Z,72.49
2019-02-10T21:52:17.937Z,72.01
2019-02-10T21:55:07.615Z,72.15
2019-02-10T21:57:54.936Z,72.08
2019-02-10T22:00:42.772Z,71.18
2019-02-10T22:03:30.101Z,71.41
2019-02-10T22:06:17.705Z,71.29
2019-02-10T22:09:05.972Z,71.98
2019-02-10T22:11:53.388Z,72.85
2019-02-10T22:14:40.914Z,73.62
2019-02-10T22:17:28.338Z,73.51
2019-02-10T22:20:15.878Z,74.64
2019-02-10T22:23:03.398Z,74.20
2019-02-10T22:25:50.725Z,74.05
2019-02-10T22:28:38.344Z,74.54
2019-02-10T22:31:25.869Z,74.88
2019-02-10T22:34:13.297Z,74.24
2019-02-10T22:37:00.721Z,73.67
2019-02-10T22:39:47.998Z,74.01
2019-02-10T22:42:35.671Z,74.29
2019-02-10T22:45:22.791Z,74.02
2019-02-10T22:48:10.209Z,73.33
2019-02-10T22:50:57.535Z,72.43
2019-02-10T22:53:44.542Z,73.59
2019-02-10T22:56:32.069Z,72.68
2019-02-10T22:59:19.813Z,72.62
2019-02-10T23:02:07.714Z,72.43
2019-02-10T23:04:54.959Z,72.98
2019-02-10T23:07:42.692Z,73.49
2019-02-10T23:10:30.626Z,72.90
2019-02-10T23:13:18.664Z,73.36
2019-02-10T23:16:06.191Z,72.90
2019-02-10T23:18:54.229Z,72.88
2019-02-10T23:21:41.654Z,72.84
2019-02-10T23:24:29.081Z,72.14
2019-02-10T23:27:16.298Z,72.22
2019-02-10T23:30:04.903Z,72.08
2019-02-10T23:32:52.586Z,71.37
2019-02-10T23:35:40.106Z,72.25
2019-02-10T23:38:27.121Z,71.93
2019-02-10T23:41:14.746Z,71.77
2019-02-10T23:44:02.277Z,71.91
2019-02-10T23:46:49.800Z,71.92
2019-02-10T23:49:37.126Z,71.80
2019-02-10T23:52:24.653Z,71.21
2019-02-10T23:55:12.177Z,71.32
2019-02-10T23:57:59.610Z,70.78
